sensor_id;sensor_type;location;lat;lon;timestamp;P1;durP1;ratioP1;P2;durP2;ratioP2
13048;SDS011;6591;51.446;5.404;2022-07-23T00:01:25;3.40;;;2.72;;
13048;SDS011;6591;51.446;5.404;2022-07-23T00:03:57;3.15;;;2.85;;
13048;SDS011;6591;51.446;5.404;2022-07-23T00:06:24;3.90;;;3.13;;
13048;SDS011;6591;51.446;5.404;2022-07-23T00:08:53;3.13;;;2.83;;
13048;SDS011;6591;51.446;5.404;2022-07-23T00:11:24;4.00;;;2.95;;
13048;SDS011;6591;51.446;5.404;2022-07-23T00:13:51;4.32;;;2.90;;
13048;SDS011;6591;51.446;5.404;2022-07-23T00:16:19;4.05;;;3.05;;
13048;SDS011;6591;51.446;5.404;2022-07-23T00:18:47;7.63;;;3.25;;
13048;SDS011;6591;51.446;5.404;2022-07-23T00:21:14;5.90;;;3.45;;
13048;SDS011;6591;51.446;5.404;2022-07-23T00:23:41;4.53;;;3.45;;
13048;SDS011;6591;51.446;5.404;2022-07-23T00:26:09;5.20;;;3.25;;
13048;SDS011;6591;51.446;5.404;2022-07-23T00:28:37;3.72;;;2.70;;
13048;SDS011;6591;51.446;5.404;2022-07-23T00:31:04;4.25;;;3.05;;
13048;SDS011;6591;51.446;5.404;2022-07-23T00:33:31;3.17;;;2.88;;
13048;SDS011;6591;51.446;5.404;2022-07-23T00:35:59;3.30;;;3.00;;
13048;SDS011;6591;51.446;5.404;2022-07-23T00:38:26;3.28;;;2.97;;
13048;SDS011;6591;51.446;5.404;2022-07-23T00:40:54;4.55;;;3.33;;
13048;SDS011;6591;51.446;5.404;2022-07-23T00:43:22;4.82;;;3.47;;
13048;SDS011;6591;51.446;5.404;2022-07-23T00:45:55;3.70;;;3.30;;
13048;SDS011;6591;51.446;5.404;2022-07-23T00:48:26;8.10;;;4.05;;
13048;SDS011;6591;51.446;5.404;2022-07-23T00:50:55;3.85;;;3.40;;
13048;SDS011;6591;51.446;5.404;2022-07-23T00:53:22;4.60;;;3.45;;
13048;SDS011;6591;51.446;5.404;2022-07-23T00:55:51;4.25;;;3.53;;
13048;SDS011;6591;51.446;5.404;2022-07-23T00:58:22;3.65;;;3.28;;
13048;SDS011;6591;51.446;5.404;2022-07-23T01:00:49;4.35;;;3.40;;
13048;SDS011;6591;51.446;5.404;2022-07-23T01:03:16;3.78;;;3.28;;
13048;SDS011;6591;51.446;5.404;2022-07-23T01:05:43;4.80;;;3.17;;
13048;SDS011;6591;51.446;5.404;2022-07-23T01:08:13;4.70;;;3.70;;
13048;SDS011;6591;51.446;5.404;2022-07-23T01:10:42;4.97;;;3.25;;
13048;SDS011;6591;51.446;5.404;2022-07-23T01:13:10;3.78;;;3.40;;
13048;SDS011;6591;51.446;5.404;2022-07-23T01:15:38;5.15;;;3.78;;
13048;SDS011;6591;51.446;5.404;2022-07-23T01:18:09;4.32;;;3.63;;
13048;SDS011;6591;51.446;5.404;2022-07-23T01:20:42;3.65;;;3.35;;
13048;SDS011;6591;51.446;5.404;2022-07-23T01:23:09;3.75;;;3.20;;
13048;SDS011;6591;51.446;5.404;2022-07-23T01:25:47;4.53;;;3.15;;
13048;SDS011;6591;51.446;5.404;2022-07-23T01:28:25;3.97;;;3.10;;
13048;SDS011;6591;51.446;5.404;2022-07-23T01:30:57;4.25;;;3.70;;
13048;SDS011;6591;51.446;5.404;2022-07-23T01:33:24;5.70;;;3.65;;
13048;SDS011;6591;51.446;5.404;2022-07-23T01:35:51;3.65;;;3.30;;
13048;SDS011;6591;51.446;5.404;2022-07-23T01:38:22;3.85;;;3.47;;
13048;SDS011;6591;51.446;5.404;2022-07-23T01:40:51;4.78;;;3.45;;
13048;SDS011;6591;51.446;5.404;2022-07-23T01:43:24;3.80;;;3.38;;
13048;SDS011;6591;51.446;5.404;2022-07-23T01:45:53;4.88;;;3.50;;
13048;SDS011;6591;51.446;5.404;2022-07-23T01:48:23;3.83;;;3.03;;
13048;SDS011;6591;51.446;5.404;2022-07-23T01:51:10;4.87;;;3.27;;
13048;SDS011;6591;51.446;5.404;2022-07-23T01:53:43;4.53;;;3.10;;
13048;SDS011;6591;51.446;5.404;2022-07-23T01:56:10;3.42;;;3.05;;
13048;SDS011;6591;51.446;5.404;2022-07-23T01:58:38;5.07;;;4.00;;
13048;SDS011;6591;51.446;5.404;2022-07-23T02:01:05;3.85;;;3.55;;
13048;SDS011;6591;51.446;5.404;2022-07-23T02:03:33;3.67;;;3.20;;
13048;SDS011;6591;51.446;5.404;2022-07-23T02:06:01;3.28;;;2.97;;
13048;SDS011;6591;51.446;5.404;2022-07-23T02:08:29;3.50;;;3.20;;
13048;SDS011;6591;51.446;5.404;2022-07-23T02:11:00;4.32;;;3.53;;
13048;SDS011;6591;51.446;5.404;2022-07-23T02:13:29;3.40;;;2.95;;
13048;SDS011;6591;51.446;5.404;2022-07-23T02:15:59;3.72;;;3.42;;
13048;SDS011;6591;51.446;5.404;2022-07-23T02:18:31;3.35;;;3.05;;
13048;SDS011;6591;51.446;5.404;2022-07-23T02:20:58;4.03;;;3.60;;
13048;SDS011;6591;51.446;5.404;2022-07-23T02:23:26;3.45;;;3.13;;
13048;SDS011;6591;51.446;5.404;2022-07-23T02:25:56;3.92;;;2.97;;
13048;SDS011;6591;51.446;5.404;2022-07-23T02:28:23;4.25;;;3.13;;
13048;SDS011;6591;51.446;5.404;2022-07-23T02:31:16;6.05;;;3.00;;
13048;SDS011;6591;51.446;5.404;2022-07-23T02:33:43;3.55;;;2.92;;
13048;SDS011;6591;51.446;5.404;2022-07-23T02:36:10;3.27;;;2.97;;
13048;SDS011;6591;51.446;5.404;2022-07-23T02:38:37;3.90;;;3.00;;
13048;SDS011;6591;51.446;5.404;2022-07-23T02:41:07;3.40;;;3.10;;
13048;SDS011;6591;51.446;5.404;2022-07-23T02:43:36;3.20;;;2.90;;
13048;SDS011;6591;51.446;5.404;2022-07-23T02:46:03;3.33;;;2.93;;
13048;SDS011;6591;51.446;5.404;2022-07-23T02:48:31;3.13;;;2.83;;
13048;SDS011;6591;51.446;5.404;2022-07-23T02:51:00;3.23;;;2.93;;
13048;SDS011;6591;51.446;5.404;2022-07-23T02:53:33;3.45;;;3.15;;
13048;SDS011;6591;51.446;5.404;2022-07-23T02:56:00;3.85;;;3.55;;
13048;SDS011;6591;51.446;5.404;2022-07-23T02:58:28;3.50;;;3.00;;
13048;SDS011;6591;51.446;5.404;2022-07-23T03:00:55;7.32;;;3.20;;
13048;SDS011;6591;51.446;5.404;2022-07-23T03:03:26;4.50;;;3.57;;
13048;SDS011;6591;51.446;5.404;2022-07-23T03:05:55;3.83;;;3.43;;
13048;SDS011;6591;51.446;5.404;2022-07-23T03:08:23;3.63;;;3.28;;
13048;SDS011;6591;51.446;5.404;2022-07-23T03:10:51;3.85;;;3.47;;
13048;SDS011;6591;51.446;5.404;2022-07-23T03:13:20;3.65;;;3.30;;
13048;SDS011;6591;51.446;5.404;2022-07-23T03:15:47;3.60;;;3.30;;
13048;SDS011;6591;51.446;5.404;2022-07-23T03:18:15;3.80;;;3.43;;
13048;SDS011;6591;51.446;5.404;2022-07-23T03:20:43;3.85;;;3.53;;
13048;SDS011;6591;51.446;5.404;2022-07-23T03:23:10;3.88;;;3.58;;
13048;SDS011;6591;51.446;5.404;2022-07-23T03:25:37;5.30;;;4.00;;
13048;SDS011;6591;51.446;5.404;2022-07-23T03:28:04;5.30;;;4.13;;
13048;SDS011;6591;51.446;5.404;2022-07-23T03:30:31;4.53;;;4.13;;
13048;SDS011;6591;51.446;5.404;2022-07-23T03:32:58;5.00;;;4.27;;
13048;SDS011;6591;51.446;5.404;2022-07-23T03:35:26;4.63;;;4.03;;
13048;SDS011;6591;51.446;5.404;2022-07-23T03:38:11;4.93;;;4.43;;
13048;SDS011;6591;51.446;5.404;2022-07-23T03:40:42;4.30;;;3.88;;
13048;SDS011;6591;51.446;5.404;2022-07-23T03:43:09;5.23;;;4.47;;
13048;SDS011;6591;51.446;5.404;2022-07-23T03:45:37;5.10;;;4.00;;
13048;SDS011;6591;51.446;5.404;2022-07-23T03:48:06;4.53;;;4.13;;
13048;SDS011;6591;51.446;5.404;2022-07-23T03:50:34;4.43;;;4.03;;
13048;SDS011;6591;51.446;5.404;2022-07-23T03:53:03;4.93;;;4.40;;
13048;SDS011;6591;51.446;5.404;2022-07-23T03:55:33;4.63;;;3.83;;
13048;SDS011;6591;51.446;5.404;2022-07-23T03:58:00;4.55;;;4.15;;
13048;SDS011;6591;51.446;5.404;2022-07-23T04:00:28;5.13;;;4.63;;
13048;SDS011;6591;51.446;5.404;2022-07-23T04:02:58;4.83;;;4.23;;
13048;SDS011;6591;51.446;5.404;2022-07-23T04:05:26;6.20;;;4.07;;
13048;SDS011;6591;51.446;5.404;2022-07-23T04:08:14;6.17;;;4.03;;
13048;SDS011;6591;51.446;5.404;2022-07-23T04:10:49;6.20;;;4.03;;
13048;SDS011;6591;51.446;5.404;2022-07-23T04:13:20;5.00;;;4.50;;
13048;SDS011;6591;51.446;5.404;2022-07-23T04:15:51;4.93;;;4.43;;
13048;SDS011;6591;51.446;5.404;2022-07-23T04:18:19;4.38;;;3.97;;
13048;SDS011;6591;51.446;5.404;2022-07-23T04:20:55;4.47;;;3.70;;
13048;SDS011;6591;51.446;5.404;2022-07-23T04:23:24;7.30;;;3.97;;
13048;SDS011;6591;51.446;5.404;2022-07-23T04:25:52;5.17;;;3.87;;
13048;SDS011;6591;51.446;5.404;2022-07-23T04:28:19;5.30;;;3.63;;
13048;SDS011;6591;51.446;5.404;2022-07-23T04:30:47;4.20;;;3.80;;
13048;SDS011;6591;51.446;5.404;2022-07-23T04:33:16;4.70;;;3.90;;
13048;SDS011;6591;51.446;5.404;2022-07-23T04:35:56;4.90;;;4.25;;
13048;SDS011;6591;51.446;5.404;2022-07-23T04:38:26;4.43;;;4.03;;
13048;SDS011;6591;51.446;5.404;2022-07-23T04:41:01;5.03;;;4.30;;
13048;SDS011;6591;51.446;5.404;2022-07-23T04:43:34;5.18;;;4.47;;
13048;SDS011;6591;51.446;5.404;2022-07-23T04:46:01;4.80;;;3.97;;
13048;SDS011;6591;51.446;5.404;2022-07-23T04:48:37;4.93;;;4.53;;
13048;SDS011;6591;51.446;5.404;2022-07-23T04:51:10;4.53;;;4.17;;
13048;SDS011;6591;51.446;5.404;2022-07-23T04:53:37;4.55;;;4.10;;
13048;SDS011;6591;51.446;5.404;2022-07-23T04:56:05;5.18;;;4.70;;
13048;SDS011;6591;51.446;5.404;2022-07-23T04:58:32;5.07;;;4.53;;
13048;SDS011;6591;51.446;5.404;2022-07-23T05:01:00;5.25;;;4.55;;
13048;SDS011;6591;51.446;5.404;2022-07-23T05:03:31;4.90;;;4.40;;
13048;SDS011;6591;51.446;5.404;2022-07-23T05:06:00;4.55;;;4.15;;
13048;SDS011;6591;51.446;5.404;2022-07-23T05:08:30;5.65;;;4.85;;
13048;SDS011;6591;51.446;5.404;2022-07-23T05:10:58;5.25;;;4.75;;
13048;SDS011;6591;51.446;5.404;2022-07-23T05:13:30;5.65;;;5.15;;
13048;SDS011;6591;51.446;5.404;2022-07-23T05:16:03;6.25;;;5.65;;
13048;SDS011;6591;51.446;5.404;2022-07-23T05:18:31;6.35;;;5.68;;
13048;SDS011;6591;51.446;5.404;2022-07-23T05:20:58;6.63;;;6.03;;
13048;SDS011;6591;51.446;5.404;2022-07-23T05:23:25;7.55;;;6.80;;
13048;SDS011;6591;51.446;5.404;2022-07-23T05:25:53;7.53;;;6.82;;
13048;SDS011;6591;51.446;5.404;2022-07-23T05:28:22;8.47;;;6.73;;
13048;SDS011;6591;51.446;5.404;2022-07-23T05:30:51;7.47;;;6.80;;
13048;SDS011;6591;51.446;5.404;2022-07-23T05:33:19;8.63;;;6.82;;
13048;SDS011;6591;51.446;5.404;2022-07-23T05:35:48;7.65;;;6.18;;
13048;SDS011;6591;51.446;5.404;2022-07-23T05:38:23;8.73;;;7.07;;
13048;SDS011;6591;51.446;5.404;2022-07-23T05:40:55;8.43;;;7.32;;
13048;SDS011;6591;51.446;5.404;2022-07-23T05:43:23;8.07;;;6.75;;
13048;SDS011;6591;51.446;5.404;2022-07-23T05:45:51;7.95;;;7.10;;
13048;SDS011;6591;51.446;5.404;2022-07-23T05:48:18;7.57;;;6.88;;
13048;SDS011;6591;51.446;5.404;2022-07-23T05:50:58;7.55;;;6.85;;
13048;SDS011;6591;51.446;5.404;2022-07-23T05:53:31;7.10;;;6.40;;
13048;SDS011;6591;51.446;5.404;2022-07-23T05:56:05;6.63;;;6.00;;
13048;SDS011;6591;51.446;5.404;2022-07-23T05:58:35;7.85;;;6.50;;
13048;SDS011;6591;51.446;5.404;2022-07-23T06:01:02;6.95;;;6.20;;
13048;SDS011;6591;51.446;5.404;2022-07-23T06:03:36;7.05;;;5.88;;
13048;SDS011;6591;51.446;5.404;2022-07-23T06:06:05;7.10;;;6.10;;
13048;SDS011;6591;51.446;5.404;2022-07-23T06:08:32;6.75;;;5.93;;
13048;SDS011;6591;51.446;5.404;2022-07-23T06:11:02;6.38;;;5.57;;
13048;SDS011;6591;51.446;5.404;2022-07-23T06:13:29;6.25;;;5.32;;
13048;SDS011;6591;51.446;5.404;2022-07-23T06:15:56;5.65;;;5.15;;
13048;SDS011;6591;51.446;5.404;2022-07-23T06:18:23;5.63;;;5.13;;
13048;SDS011;6591;51.446;5.404;2022-07-23T06:20:52;5.90;;;5.25;;
13048;SDS011;6591;51.446;5.404;2022-07-23T06:23:25;5.55;;;4.70;;
13048;SDS011;6591;51.446;5.404;2022-07-23T06:25:56;6.78;;;5.10;;
13048;SDS011;6591;51.446;5.404;2022-07-23T06:28:23;5.68;;;4.88;;
13048;SDS011;6591;51.446;5.404;2022-07-23T06:30:50;5.60;;;4.85;;
13048;SDS011;6591;51.446;5.404;2022-07-23T06:33:20;5.93;;;4.57;;
13048;SDS011;6591;51.446;5.404;2022-07-23T06:35:49;5.03;;;4.45;;
13048;SDS011;6591;51.446;5.404;2022-07-23T06:38:16;4.80;;;4.25;;
13048;SDS011;6591;51.446;5.404;2022-07-23T06:40:44;4.88;;;4.30;;
13048;SDS011;6591;51.446;5.404;2022-07-23T06:43:11;5.05;;;4.55;;
13048;SDS011;6591;51.446;5.404;2022-07-23T06:45:43;5.18;;;4.38;;
13048;SDS011;6591;51.446;5.404;2022-07-23T06:48:11;4.45;;;4.05;;
13048;SDS011;6591;51.446;5.404;2022-07-23T06:50:38;5.18;;;4.00;;
13048;SDS011;6591;51.446;5.404;2022-07-23T06:53:06;4.90;;;3.47;;
13048;SDS011;6591;51.446;5.404;2022-07-23T06:55:33;4.53;;;4.00;;
13048;SDS011;6591;51.446;5.404;2022-07-23T06:58:04;5.90;;;3.83;;
13048;SDS011;6591;51.446;5.404;2022-07-23T07:00:31;4.63;;;3.40;;
13048;SDS011;6591;51.446;5.404;2022-07-23T07:03:02;3.83;;;3.47;;
13048;SDS011;6591;51.446;5.404;2022-07-23T07:05:30;4.50;;;3.75;;
13048;SDS011;6591;51.446;5.404;2022-07-23T07:07:58;4.15;;;3.70;;
13048;SDS011;6591;51.446;5.404;2022-07-23T07:10:25;3.63;;;3.33;;
13048;SDS011;6591;51.446;5.404;2022-07-23T07:12:55;4.28;;;3.72;;
13048;SDS011;6591;51.446;5.404;2022-07-23T07:15:24;3.65;;;3.35;;
13048;SDS011;6591;51.446;5.404;2022-07-23T07:17:51;3.47;;;3.17;;
13048;SDS011;6591;51.446;5.404;2022-07-23T07:20:18;5.10;;;3.42;;
13048;SDS011;6591;51.446;5.404;2022-07-23T07:22:47;3.85;;;3.13;;
13048;SDS011;6591;51.446;5.404;2022-07-23T07:25:15;3.42;;;3.13;;
13048;SDS011;6591;51.446;5.404;2022-07-23T07:27:42;4.75;;;3.13;;
13048;SDS011;6591;51.446;5.404;2022-07-23T07:30:11;3.70;;;3.30;;
13048;SDS011;6591;51.446;5.404;2022-07-23T07:32:39;3.80;;;3.20;;
13048;SDS011;6591;51.446;5.404;2022-07-23T07:35:23;4.10;;;3.35;;
13048;SDS011;6591;51.446;5.404;2022-07-23T07:37:54;5.78;;;3.38;;
13048;SDS011;6591;51.446;5.404;2022-07-23T07:40:24;3.78;;;3.22;;
13048;SDS011;6591;51.446;5.404;2022-07-23T07:42:59;4.35;;;3.40;;
13048;SDS011;6591;51.446;5.404;2022-07-23T07:45:27;4.43;;;3.03;;
13048;SDS011;6591;51.446;5.404;2022-07-23T07:47:57;6.72;;;3.15;;
13048;SDS011;6591;51.446;5.404;2022-07-23T07:50:24;4.43;;;3.70;;
13048;SDS011;6591;51.446;5.404;2022-07-23T07:52:52;4.72;;;3.03;;
13048;SDS011;6591;51.446;5.404;2022-07-23T07:55:19;3.42;;;2.80;;
13048;SDS011;6591;51.446;5.404;2022-07-23T07:57:49;4.00;;;3.05;;
13048;SDS011;6591;51.446;5.404;2022-07-23T08:00:16;3.25;;;2.65;;
13048;SDS011;6591;51.446;5.404;2022-07-23T08:02:45;2.75;;;2.53;;
13048;SDS011;6591;51.446;5.404;2022-07-23T08:05:26;4.68;;;2.80;;
13048;SDS011;6591;51.446;5.404;2022-07-23T08:07:57;4.13;;;2.83;;
13048;SDS011;6591;51.446;5.404;2022-07-23T08:10:30;3.25;;;2.95;;
13048;SDS011;6591;51.446;5.404;2022-07-23T08:12:58;4.15;;;2.70;;
13048;SDS011;6591;51.446;5.404;2022-07-23T08:15:32;3.22;;;2.60;;
13048;SDS011;6591;51.446;5.404;2022-07-23T08:17:59;2.58;;;2.38;;
13048;SDS011;6591;51.446;5.404;2022-07-23T08:20:26;182.77;;;20.52;;
13048;SDS011;6591;51.446;5.404;2022-07-23T08:22:58;8.70;;;4.40;;
13048;SDS011;6591;51.446;5.404;2022-07-23T08:25:31;4.50;;;2.90;;
13048;SDS011;6591;51.446;5.404;2022-07-23T08:28:03;3.42;;;2.80;;
13048;SDS011;6591;51.446;5.404;2022-07-23T08:30:33;4.15;;;3.00;;
13048;SDS011;6591;51.446;5.404;2022-07-23T08:33:06;3.58;;;2.75;;
13048;SDS011;6591;51.446;5.404;2022-07-23T08:35:58;3.20;;;2.90;;
13048;SDS011;6591;51.446;5.404;2022-07-23T08:38:26;4.07;;;2.88;;
13048;SDS011;6591;51.446;5.404;2022-07-23T08:40:58;2.75;;;2.55;;
13048;SDS011;6591;51.446;5.404;2022-07-23T08:43:26;3.50;;;2.63;;
13048;SDS011;6591;51.446;5.404;2022-07-23T08:46:00;5.50;;;2.95;;
13048;SDS011;6591;51.446;5.404;2022-07-23T08:48:31;3.60;;;3.30;;
13048;SDS011;6591;51.446;5.404;2022-07-23T08:51:02;3.20;;;2.90;;
13048;SDS011;6591;51.446;5.404;2022-07-23T08:53:33;3.83;;;3.25;;
13048;SDS011;6591;51.446;5.404;2022-07-23T08:56:04;3.45;;;2.67;;
13048;SDS011;6591;51.446;5.404;2022-07-23T08:58:33;4.80;;;2.45;;
13048;SDS011;6591;51.446;5.404;2022-07-23T09:01:01;3.30;;;3.00;;
13048;SDS011;6591;51.446;5.404;2022-07-23T09:03:29;3.03;;;2.50;;
13048;SDS011;6591;51.446;5.404;2022-07-23T09:06:02;3.08;;;2.33;;
13048;SDS011;6591;51.446;5.404;2022-07-23T09:08:39;4.50;;;2.78;;
13048;SDS011;6591;51.446;5.404;2022-07-23T09:11:12;5.63;;;2.90;;
13048;SDS011;6591;51.446;5.404;2022-07-23T09:16:24;2.67;;;2.47;;
13048;SDS011;6591;51.446;5.404;2022-07-23T09:19:04;4.38;;;2.95;;
13048;SDS011;6591;51.446;5.404;2022-07-23T09:21:34;2.35;;;2.15;;
13048;SDS011;6591;51.446;5.404;2022-07-23T09:24:04;4.20;;;3.00;;
13048;SDS011;6591;51.446;5.404;2022-07-23T09:26:41;2.95;;;2.33;;
13048;SDS011;6591;51.446;5.404;2022-07-23T09:29:12;3.40;;;2.70;;
13048;SDS011;6591;51.446;5.404;2022-07-23T09:31:50;2.55;;;2.35;;
13048;SDS011;6591;51.446;5.404;2022-07-23T09:37:09;2.58;;;2.38;;
13048;SDS011;6591;51.446;5.404;2022-07-23T09:39:41;2.97;;;2.53;;
13048;SDS011;6591;51.446;5.404;2022-07-23T09:42:19;4.28;;;2.30;;
13048;SDS011;6591;51.446;5.404;2022-07-23T09:44:55;3.20;;;2.33;;
13048;SDS011;6591;51.446;5.404;2022-07-23T09:47:29;2.20;;;2.00;;
13048;SDS011;6591;51.446;5.404;2022-07-23T09:50:07;2.53;;;2.10;;
13048;SDS011;6591;51.446;5.404;2022-07-23T09:52:45;2.65;;;2.05;;
13048;SDS011;6591;51.446;5.404;2022-07-23T09:55:15;2.47;;;2.28;;
13048;SDS011;6591;51.446;5.404;2022-07-23T09:57:45;2.22;;;1.85;;
13048;SDS011;6591;51.446;5.404;2022-07-23T10:00:17;3.80;;;2.30;;
13048;SDS011;6591;51.446;5.404;2022-07-23T10:02:46;2.53;;;2.05;;
13048;SDS011;6591;51.446;5.404;2022-07-23T10:05:30;2.20;;;1.95;;
13048;SDS011;6591;51.446;5.404;2022-07-23T10:08:38;4.05;;;2.20;;
13048;SDS011;6591;51.446;5.404;2022-07-23T10:11:37;2.50;;;2.30;;
13048;SDS011;6591;51.446;5.404;2022-07-23T10:14:19;2.88;;;2.30;;
13048;SDS011;6591;51.446;5.404;2022-07-23T10:16:56;2.35;;;2.15;;
13048;SDS011;6591;51.446;5.404;2022-07-23T10:19:28;2.92;;;2.38;;
13048;SDS011;6591;51.446;5.404;2022-07-23T10:22:00;2.60;;;2.05;;
13048;SDS011;6591;51.446;5.404;2022-07-23T10:25:15;2.53;;;2.03;;
13048;SDS011;6591;51.446;5.404;2022-07-23T10:27:56;1.95;;;1.50;;
13048;SDS011;6591;51.446;5.404;2022-07-23T10:31:09;2.40;;;1.83;;
13048;SDS011;6591;51.446;5.404;2022-07-23T10:34:50;3.22;;;1.60;;
13048;SDS011;6591;51.446;5.404;2022-07-23T10:37:42;2.25;;;1.50;;
13048;SDS011;6591;51.446;5.404;2022-07-23T10:40:16;2.03;;;1.70;;
13048;SDS011;6591;51.446;5.404;2022-07-23T10:42:48;2.20;;;1.60;;
13048;SDS011;6591;51.446;5.404;2022-07-23T10:45:23;1.90;;;1.50;;
13048;SDS011;6591;51.446;5.404;2022-07-23T10:48:11;2.15;;;1.50;;
13048;SDS011;6591;51.446;5.404;2022-07-23T10:51:33;1.60;;;1.42;;
13048;SDS011;6591;51.446;5.404;2022-07-23T11:02:41;1.40;;;1.25;;
13048;SDS011;6591;51.446;5.404;2022-07-23T11:05:17;1.70;;;1.60;;
13048;SDS011;6591;51.446;5.404;2022-07-23T11:08:13;2.97;;;1.70;;
13048;SDS011;6591;51.446;5.404;2022-07-23T11:10:51;1.58;;;1.48;;
13048;SDS011;6591;51.446;5.404;2022-07-23T11:13:40;2.10;;;1.75;;
13048;SDS011;6591;51.446;5.404;2022-07-23T11:16:14;2.30;;;1.80;;
13048;SDS011;6591;51.446;5.404;2022-07-23T11:18:52;3.13;;;2.22;;
13048;SDS011;6591;51.446;5.404;2022-07-23T11:34:51;12.23;;;3.40;;
13048;SDS011;6591;51.446;5.404;2022-07-23T11:40:04;3.63;;;2.00;;
13048;SDS011;6591;51.446;5.404;2022-07-23T11:42:39;2.75;;;2.03;;
13048;SDS011;6591;51.446;5.404;2022-07-23T11:45:19;1.70;;;1.60;;
13048;SDS011;6591;51.446;5.404;2022-07-23T11:47:51;2.85;;;1.60;;
13048;SDS011;6591;51.446;5.404;2022-07-23T11:50:19;2.03;;;1.67;;
13048;SDS011;6591;51.446;5.404;2022-07-23T11:52:49;1.70;;;1.60;;
13048;SDS011;6591;51.446;5.404;2022-07-23T11:55:17;1.58;;;1.40;;
13048;SDS011;6591;51.446;5.404;2022-07-23T11:57:45;2.00;;;1.30;;
13048;SDS011;6591;51.446;5.404;2022-07-23T12:00:17;1.75;;;1.35;;
13048;SDS011;6591;51.446;5.404;2022-07-23T12:02:58;1.95;;;1.17;;
13048;SDS011;6591;51.446;5.404;2022-07-23T12:05:31;1.75;;;1.40;;
13048;SDS011;6591;51.446;5.404;2022-07-23T12:08:05;1.77;;;1.65;;
13048;SDS011;6591;51.446;5.404;2022-07-23T12:10:40;1.42;;;1.33;;
13048;SDS011;6591;51.446;5.404;2022-07-23T12:13:13;1.60;;;1.50;;
13048;SDS011;6591;51.446;5.404;2022-07-23T12:15:52;2.38;;;1.60;;
13048;SDS011;6591;51.446;5.404;2022-07-23T12:18:24;1.67;;;1.58;;
13048;SDS011;6591;51.446;5.404;2022-07-23T12:20:56;2.25;;;1.60;;
13048;SDS011;6591;51.446;5.404;2022-07-23T12:23:29;1.42;;;1.33;;
13048;SDS011;6591;51.446;5.404;2022-07-23T12:26:00;2.28;;;1.42;;
13048;SDS011;6591;51.446;5.404;2022-07-23T12:28:30;2.17;;;1.33;;
13048;SDS011;6591;51.446;5.404;2022-07-23T12:30:59;2.40;;;1.38;;
13048;SDS011;6591;51.446;5.404;2022-07-23T12:33:32;1.35;;;1.25;;
13048;SDS011;6591;51.446;5.404;2022-07-23T12:36:08;1.52;;;1.13;;
13048;SDS011;6591;51.446;5.404;2022-07-23T12:38:43;1.30;;;1.20;;
13048;SDS011;6591;51.446;5.404;2022-07-23T12:41:16;2.53;;;1.60;;
13048;SDS011;6591;51.446;5.404;2022-07-23T12:43:44;1.50;;;1.40;;
13048;SDS011;6591;51.446;5.404;2022-07-23T12:46:16;1.70;;;1.55;;
13048;SDS011;6591;51.446;5.404;2022-07-23T12:48:53;1.85;;;1.40;;
13048;SDS011;6591;51.446;5.404;2022-07-23T12:51:46;1.75;;;1.25;;
13048;SDS011;6591;51.446;5.404;2022-07-23T12:54:17;2.63;;;1.35;;
13048;SDS011;6591;51.446;5.404;2022-07-23T12:56:46;1.70;;;1.20;;
13048;SDS011;6591;51.446;5.404;2022-07-23T12:59:14;1.55;;;1.45;;
13048;SDS011;6591;51.446;5.404;2022-07-23T13:01:56;1.65;;;1.30;;
13048;SDS011;6591;51.446;5.404;2022-07-23T13:04:29;1.60;;;1.50;;
13048;SDS011;6591;51.446;5.404;2022-07-23T13:07:01;1.45;;;1.35;;
13048;SDS011;6591;51.446;5.404;2022-07-23T13:09:31;1.42;;;1.20;;
13048;SDS011;6591;51.446;5.404;2022-07-23T13:12:09;1.95;;;1.35;;
13048;SDS011;6591;51.446;5.404;2022-07-23T13:14:38;1.45;;;1.35;;
13048;SDS011;6591;51.446;5.404;2022-07-23T13:17:11;1.30;;;1.20;;
13048;SDS011;6591;51.446;5.404;2022-07-23T13:19:38;1.52;;;1.42;;
13048;SDS011;6591;51.446;5.404;2022-07-23T13:22:05;1.83;;;1.33;;
13048;SDS011;6591;51.446;5.404;2022-07-23T13:24:35;1.73;;;1.35;;
13048;SDS011;6591;51.446;5.404;2022-07-23T13:27:05;1.80;;;1.40;;
13048;SDS011;6591;51.446;5.404;2022-07-23T13:29:38;2.00;;;1.25;;
13048;SDS011;6591;51.446;5.404;2022-07-23T13:32:05;1.73;;;1.40;;
13048;SDS011;6591;51.446;5.404;2022-07-23T13:34:36;1.45;;;1.35;;
13048;SDS011;6591;51.446;5.404;2022-07-23T13:37:08;1.48;;;1.38;;
13048;SDS011;6591;51.446;5.404;2022-07-23T13:39:35;1.77;;;1.55;;
13048;SDS011;6591;51.446;5.404;2022-07-23T13:42:06;1.90;;;1.50;;
13048;SDS011;6591;51.446;5.404;2022-07-23T13:44:38;1.67;;;1.58;;
13048;SDS011;6591;51.446;5.404;2022-07-23T13:47:05;1.98;;;1.30;;
13048;SDS011;6591;51.446;5.404;2022-07-23T13:49:33;1.92;;;1.50;;
13048;SDS011;6591;51.446;5.404;2022-07-23T13:52:01;2.60;;;1.48;;
13048;SDS011;6591;51.446;5.404;2022-07-23T13:54:33;2.00;;;1.50;;
13048;SDS011;6591;51.446;5.404;2022-07-23T13:57:00;1.80;;;1.30;;
13048;SDS011;6591;51.446;5.404;2022-07-23T13:59:29;1.63;;;1.52;;
13048;SDS011;6591;51.446;5.404;2022-07-23T14:01:56;2.38;;;1.70;;
13048;SDS011;6591;51.446;5.404;2022-07-23T14:04:43;2.03;;;1.70;;
13048;SDS011;6591;51.446;5.404;2022-07-23T14:07:11;1.92;;;1.50;;
13048;SDS011;6591;51.446;5.404;2022-07-23T14:09:42;2.05;;;1.48;;
13048;SDS011;6591;51.446;5.404;2022-07-23T14:12:10;1.67;;;1.40;;
13048;SDS011;6591;51.446;5.404;2022-07-23T14:14:38;1.58;;;1.48;;
13048;SDS011;6591;51.446;5.404;2022-07-23T14:17:05;1.83;;;1.40;;
13048;SDS011;6591;51.446;5.404;2022-07-23T14:19:37;1.83;;;1.60;;
13048;SDS011;6591;51.446;5.404;2022-07-23T14:22:04;1.52;;;1.42;;
13048;SDS011;6591;51.446;5.404;2022-07-23T14:24:32;1.45;;;1.35;;
13048;SDS011;6591;51.446;5.404;2022-07-23T14:27:01;1.60;;;1.50;;
13048;SDS011;6591;51.446;5.404;2022-07-23T14:29:32;1.80;;;1.50;;
13048;SDS011;6591;51.446;5.404;2022-07-23T14:32:00;1.70;;;1.60;;
13048;SDS011;6591;51.446;5.404;2022-07-23T14:34:28;1.80;;;1.45;;
13048;SDS011;6591;51.446;5.404;2022-07-23T14:36:55;2.58;;;1.63;;
13048;SDS011;6591;51.446;5.404;2022-07-23T14:39:25;1.45;;;1.35;;
13048;SDS011;6591;51.446;5.404;2022-07-23T14:41:56;2.75;;;1.63;;
13048;SDS011;6591;51.446;5.404;2022-07-23T14:44:24;2.88;;;1.80;;
13048;SDS011;6591;51.446;5.404;2022-07-23T14:46:55;1.98;;;1.60;;
13048;SDS011;6591;51.446;5.404;2022-07-23T14:49:22;3.40;;;1.50;;
13048;SDS011;6591;51.446;5.404;2022-07-23T14:51:54;1.90;;;1.70;;
13048;SDS011;6591;51.446;5.404;2022-07-23T14:54:22;2.35;;;1.75;;
13048;SDS011;6591;51.446;5.404;2022-07-23T14:56:53;2.15;;;1.60;;
13048;SDS011;6591;51.446;5.404;2022-07-23T14:59:22;1.63;;;1.50;;
13048;SDS011;6591;51.446;5.404;2022-07-23T15:01:51;1.83;;;1.73;;
13048;SDS011;6591;51.446;5.404;2022-07-23T15:04:19;1.50;;;1.40;;
13048;SDS011;6591;51.446;5.404;2022-07-23T15:07:03;3.42;;;2.28;;
13048;SDS011;6591;51.446;5.404;2022-07-23T15:09:31;2.20;;;2.00;;
13048;SDS011;6591;51.446;5.404;2022-07-23T15:12:02;2.08;;;1.90;;
13048;SDS011;6591;51.446;5.404;2022-07-23T15:14:33;2.25;;;1.77;;
13048;SDS011;6591;51.446;5.404;2022-07-23T15:17:00;1.73;;;1.63;;
13048;SDS011;6591;51.446;5.404;2022-07-23T15:19:28;1.80;;;1.63;;
13048;SDS011;6591;51.446;5.404;2022-07-23T15:21:56;1.67;;;1.50;;
13048;SDS011;6591;51.446;5.404;2022-07-23T15:24:28;2.40;;;1.65;;
13048;SDS011;6591;51.446;5.404;2022-07-23T15:26:55;2.00;;;1.80;;
13048;SDS011;6591;51.446;5.404;2022-07-23T15:29:24;2.28;;;1.60;;
13048;SDS011;6591;51.446;5.404;2022-07-23T15:31:51;2.17;;;1.80;;
13048;SDS011;6591;51.446;5.404;2022-07-23T15:34:39;1.70;;;1.60;;
13048;SDS011;6591;51.446;5.404;2022-07-23T15:37:08;1.60;;;1.50;;
13048;SDS011;6591;51.446;5.404;2022-07-23T15:39:37;2.65;;;2.17;;
13048;SDS011;6591;51.446;5.404;2022-07-23T15:42:04;1.73;;;1.60;;
13048;SDS011;6591;51.446;5.404;2022-07-23T15:44:41;1.98;;;1.77;;
13048;SDS011;6591;51.446;5.404;2022-07-23T15:47:13;1.85;;;1.75;;
13048;SDS011;6591;51.446;5.404;2022-07-23T15:49:44;2.50;;;2.10;;
13048;SDS011;6591;51.446;5.404;2022-07-23T15:52:12;1.90;;;1.80;;
13048;SDS011;6591;51.446;5.404;2022-07-23T15:54:40;2.15;;;1.80;;
13048;SDS011;6591;51.446;5.404;2022-07-23T15:57:08;1.83;;;1.70;;